Time;durP1;ratioP1;P1;durP2;ratioP2;P2;SDS_P1;SDS_P2;PMS_P1;PMS_P2;Temp;Humidity;BMP_temperature;BMP_pressure;BME280_temperature;BME280_humidity;BME280_pressure;Samples;Min_cycle;Max_cycle;Signal;HPM_P1;HPM_P2
2024/01/11 00:00:33;;;;;;;22.57;10.77;;;;;;;-2.26;66.18;97988.03;4891013;29;20203;-63
2024/01/11 00:03:01;;;;;;;16.57;9.93;;;;;;;-2.36;65.50;97989.53;4890062;29;20681;-64
2024/01/11 00:05:28;;;;;;;22.83;9.77;;;;;;;-2.29;65.93;97999.00;4890991;29;20296;-64
2024/01/11 00:07:55;;;;;;;24.87;12.43;;;;;;;-2.36;66.94;97999.69;4891052;29;20197;-64
2024/01/11 00:10:22;;;;;;;28.07;15.03;;;;;;;-2.52;67.27;98003.59;4890717;29;20229;-63
2024/01/11 00:12:50;;;;;;;19.43;12.10;;;;;;;-2.67;68.58;97990.63;4890775;29;20233;-61
2024/01/11 00:15:17;;;;;;;20.87;9.00;;;;;;;-2.70;69.33;98000.66;4890117;29;20240;-62
2024/01/11 00:17:45;;;;;;;13.53;8.40;;;;;;;-2.80;69.99;97991.16;4890262;29;20591;-65
2024/01/11 00:20:12;;;;;;;13.90;8.67;;;;;;;-2.91;70.33;97990.09;4890501;29;20594;-61
2024/01/11 00:22:39;;;;;;;16.17;8.63;;;;;;;-3.03;70.87;97981.38;4890180;29;20553;-62
2024/01/11 00:25:07;;;;;;;18.33;8.60;;;;;;;-3.05;70.99;97990.63;4890630;29;20310;-64
2024/01/11 00:27:34;;;;;;;14.40;8.37;;;;;;;-3.22;70.76;97986.84;4890367;29;20684;-63
2024/01/11 00:30:01;;;;;;;19.77;9.30;;;;;;;-3.38;71.86;97983.94;4890480;29;20247;-62
2024/01/11 00:32:31;;;;;;;21.33;8.87;;;;;;;-3.36;72.60;97987.38;4890434;29;20291;-64
2024/01/11 00:34:58;;;;;;;17.27;8.60;;;;;;;-3.69;73.28;97922.47;4890591;29;20251;-63
2024/01/11 00:37:25;;;;;;;15.30;8.07;;;;;;;-3.30;73.31;97972.31;4904845;29;20783;-64
2024/01/11 00:39:52;;;;;;;13.70;6.77;;;;;;;-3.56;73.98;97983.53;4890490;29;20675;-64
2024/01/11 00:42:19;;;;;;;17.70;8.83;;;;;;;-3.47;73.70;97960.09;4890511;29;20210;-63
2024/01/11 00:44:47;;;;;;;19.93;8.83;;;;;;;-3.45;74.56;97978.72;4890258;29;20215;-64
2024/01/11 00:47:14;;;;;;;19.43;8.67;;;;;;;-3.50;74.66;97957.50;4890189;29;20286;-64
2024/01/11 00:49:41;;;;;;;17.50;9.17;;;;;;;-3.50;74.83;97950.75;4890134;29;20207;-63
2024/01/11 00:52:09;;;;;;;15.37;7.67;;;;;;;-3.46;75.17;97937.34;4890107;29;20262;-65
2024/01/11 00:54:36;;;;;;;15.83;7.93;;;;;;;-3.44;75.34;97950.03;4888566;29;20245;-67
2024/01/11 00:57:03;;;;;;;23.30;9.93;;;;;;;-3.54;75.37;97940.53;4889879;29;20216;-65
2024/01/11 00:59:31;;;;;;;15.57;7.90;;;;;;;-3.52;76.02;97949.00;4889859;29;20646;-64
2024/01/11 01:01:58;;;;;;;19.70;8.43;;;;;;;-3.49;74.97;97947.44;4890070;29;20594;-63
2024/01/11 01:04:25;;;;;;;18.50;8.80;;;;;;;-3.23;74.40;97949.66;4890194;29;20207;-67
2024/01/11 01:06:52;;;;;;;16.17;9.17;;;;;;;-3.13;73.51;97938.94;4889998;29;20215;-67
2024/01/11 01:09:19;;;;;;;15.67;8.47;;;;;;;-2.98;72.55;97945.19;4889939;29;20211;-67
2024/01/11 01:11:46;;;;;;;16.23;7.77;;;;;;;-3.00;70.95;97943.44;4889761;29;20244;-65
2024/01/11 01:14:13;;;;;;;22.83;10.47;;;;;;;-2.95;71.17;97936.78;4891176;29;20256;-63
2024/01/11 01:16:41;;;;;;;19.10;9.17;;;;;;;-2.88;70.46;97936.09;4893152;29;20645;-69
2024/01/11 01:19:08;;;;;;;18.47;9.53;;;;;;;-3.03;70.39;97933.25;4893523;29;20232;-66
2024/01/11 01:21:35;;;;;;;18.40;8.20;;;;;;;-2.97;70.17;97929.16;4893646;29;20637;-63
2024/01/11 01:24:03;;;;;;;20.43;9.70;;;;;;;-3.01;69.92;97926.53;4893308;29;20668;-65
2024/01/11 01:26:30;;;;;;;19.70;8.93;;;;;;;-3.07;70.69;97928.94;4893273;29;20199;-64
2024/01/11 01:28:57;;;;;;;19.97;9.00;;;;;;;-2.90;70.94;97925.91;4893327;29;20215;-66
2024/01/11 01:31:24;;;;;;;19.07;9.63;;;;;;;-2.67;69.96;97926.38;4893213;29;20296;-69
2024/01/11 01:33:51;;;;;;;19.80;10.50;;;;;;;-2.47;70.23;97922.53;4893248;29;20202;-67
2024/01/11 01:36:18;;;;;;;19.27;10.57;;;;;;;-2.39;68.99;97915.09;4893373;29;20334;-67
2024/01/11 01:38:45;;;;;;;22.43;10.33;;;;;;;-2.29;68.58;97912.75;4893392;29;20244;-64
2024/01/11 01:41:12;;;;;;;17.77;9.43;;;;;;;-2.31;69.02;97905.94;4893120;29;20300;-63
2024/01/11 01:43:39;;;;;;;21.70;10.83;;;;;;;-2.21;68.35;97911.22;4892951;29;20642;-69
2024/01/11 01:46:07;;;;;;;24.07;11.47;;;;;;;-2.31;68.49;97904.28;4892970;29;20243;-63
2024/01/11 01:48:34;;;;;;;23.20;12.03;;;;;;;-2.24;68.05;97900.13;4892822;29;20717;-63
2024/01/11 01:51:03;;;;;;;23.23;12.67;;;;;;;-2.49;68.06;97888.69;4892957;29;20719;-63
2024/01/11 01:53:30;;;;;;;20.87;11.20;;;;;;;-2.36;67.85;97898.25;4892785;29;20209;-63
2024/01/11 01:55:57;;;;;;;20.47;11.60;;;;;;;-2.71;68.84;97866.31;4893319;29;20220;-67
2024/01/11 01:58:24;;;;;;;21.30;11.70;;;;;;;-2.71;69.39;97886.59;4892826;29;20199;-64
2024/01/11 02:00:52;;;;;;;21.50;10.97;;;;;;;-2.88;70.24;97885.41;4892986;29;20210;-67
2024/01/11 02:03:20;;;;;;;27.07;13.07;;;;;;;-2.82;70.59;97877.91;4892681;29;20203;-65
2024/01/11 02:05:47;;;;;;;23.87;12.17;;;;;;;-3.08;71.01;97874.03;4892728;29;20195;-63
2024/01/11 02:08:17;;;;;;;20.83;10.77;;;;;;;-3.34;71.36;97863.38;4892501;29;20309;-63
2024/01/11 02:10:45;;;;;;;22.83;11.43;;;;;;;-3.25;71.43;97866.09;4892480;29;20255;-66
2024/01/11 02:13:13;;;;;;;22.27;10.57;;;;;;;-3.34;72.13;97869.25;4892795;29;20212;-64
2024/01/11 02:15:40;;;;;;;19.63;9.70;;;;;;;-3.43;70.50;97864.03;4892224;29;20230;-65
2024/01/11 02:18:08;;;;;;;18.27;8.77;;;;;;;-3.60;71.73;97860.25;4892753;29;20232;-62
2024/01/11 02:20:35;;;;;;;16.60;9.30;;;;;;;-3.38;71.72;97854.00;4892406;29;20200;-64
2024/01/11 02:23:07;;;;;;;17.80;9.73;;;;;;;-3.31;70.99;97856.69;4892294;29;20205;-62
2024/01/11 02:25:35;;;;;;;16.40;8.47;;;;;;;-3.35;70.83;97831.25;4891747;29;20214;-62
2024/01/11 02:28:02;;;;;;;19.97;9.13;;;;;;;-3.25;71.00;97860.16;4890948;29;20208;-62
2024/01/11 02:30:29;;;;;;;15.77;7.80;;;;;;;-3.11;70.12;97848.66;4891994;29;20220;-64
2024/01/11 02:32:57;;;;;;;19.67;8.60;;;;;;;-3.09;69.00;97852.06;4891923;29;20241;-64
2024/01/11 02:35:26;;;;;;;19.40;8.93;;;;;;;-3.27;69.10;97832.28;4892274;29;20230;-66
2024/01/11 02:37:54;;;;;;;23.23;9.20;;;;;;;-3.25;69.45;97842.44;4892019;29;20207;-65
2024/01/11 02:40:22;;;;;;;20.33;10.67;;;;;;;-3.22;69.12;97848.44;4892039;29;20267;-62
2024/01/11 02:42:49;;;;;;;23.90;11.00;;;;;;;-3.25;69.01;97855.94;4890501;29;20193;-62
2024/01/11 02:45:16;;;;;;;21.20;9.73;;;;;;;-3.31;69.04;97856.69;4891885;29;20242;-63
2024/01/11 02:47:43;;;;;;;18.70;8.73;;;;;;;-3.33;69.73;97840.63;4892033;29;20238;-62
2024/01/11 02:50:12;;;;;;;22.13;9.53;;;;;;;-3.21;69.48;97841.69;4891782;29;20211;-62
2024/01/11 02:52:39;;;;;;;17.77;8.50;;;;;;;-3.19;70.02;97840.06;4891961;29;20267;-63
2024/01/11 02:55:07;;;;;;;18.80;8.97;;;;;;;-3.19;70.34;97843.41;4890387;29;20246;-61
2024/01/11 02:57:34;;;;;;;19.90;9.97;;;;;;;-3.32;70.40;97822.03;4891630;29;20247;-63
2024/01/11 03:00:01;;;;;;;27.73;12.00;;;;;;;-3.11;71.05;97836.00;4891671;29;20217;-63
2024/01/11 03:02:30;;;;;;;26.33;11.30;;;;;;;-3.09;70.30;97827.56;4891165;29;20206;-62
2024/01/11 03:04:57;;;;;;;24.20;11.60;;;;;;;-3.09;70.51;97831.81;4891565;29;20216;-62
2024/01/11 03:07:25;;;;;;;25.13;10.43;;;;;;;-3.00;70.75;97820.16;4891433;29;20611;-63
2024/01/11 03:09:52;;;;;;;21.87;10.27;;;;;;;-2.70;70.42;97832.56;4891873;29;20209;-67
2024/01/11 03:12:19;;;;;;;19.63;9.53;;;;;;;-2.57;69.89;97830.25;4891326;29;20233;-62
2024/01/11 03:14:46;;;;;;;19.53;9.90;;;;;;;-2.77;69.88;97829.06;4891050;29;20976;-62
2024/01/11 03:17:13;;;;;;;18.43;10.63;;;;;;;-2.63;69.94;97830.16;4891178;29;20292;-61
2024/01/11 03:19:43;;;;;;;15.70;8.90;;;;;;;-2.98;70.12;97797.38;4890965;29;20256;-64
2024/01/11 03:22:11;;;;;;;15.10;8.47;;;;;;;-2.64;70.20;97835.22;4891150;29;20207;-62
2024/01/11 03:24:41;;;;;;;14.30;8.40;;;;;;;-2.61;69.68;97827.66;4889723;29;20603;-63
2024/01/11 03:27:08;;;;;;;17.40;9.17;;;;;;;-2.67;69.71;97830.06;4891421;29;20255;-64
2024/01/11 03:29:35;;;;;;;18.07;9.00;;;;;;;-2.83;70.10;97833.16;4890786;29;20236;-63
2024/01/11 03:32:02;;;;;;;16.77;8.43;;;;;;;-2.76;70.96;97830.75;4890919;29;20230;-63
2024/01/11 03:34:29;;;;;;;18.53;9.17;;;;;;;-3.10;70.52;97809.81;4891199;29;20226;-63
2024/01/11 03:36:57;;;;;;;31.07;15.10;;;;;;;-3.01;69.94;97815.91;4890199;29;20251;-62
2024/01/11 03:39:25;;;;;;;28.77;13.00;;;;;;;-3.34;71.71;97805.97;4890937;29;20519;-62
2024/01/11 03:41:52;;;;;;;26.67;12.67;;;;;;;-3.14;71.48;97813.13;4890910;29;20201;-64
2024/01/11 03:44:19;;;;;;;29.80;12.87;;;;;;;-3.40;72.32;97810.91;4890920;29;20219;-62
2024/01/11 03:46:46;;;;;;;28.63;11.53;;;;;;;-3.28;72.37;97812.00;4890675;29;20202;-64
2024/01/11 03:49:14;;;;;;;27.17;10.93;;;;;;;-3.38;72.79;97816.03;4890839;29;20275;-62
2024/01/11 03:51:41;;;;;;;23.93;11.07;;;;;;;-3.50;72.22;97819.16;4890625;29;20314;-62
2024/01/11 03:54:08;;;;;;;22.33;11.27;;;;;;;-3.50;71.46;97818.28;4890710;29;20285;-64
2024/01/11 03:56:39;;;;;;;25.87;9.83;;;;;;;-3.54;71.16;97817.38;4890814;29;20222;-62
2024/01/11 03:59:06;;;;;;;16.13;9.53;;;;;;;-3.40;72.15;97815.16;4890646;29;20726;-62
2024/01/11 04:01:40;;;;;;;17.53;9.20;;;;;;;-3.39;70.96;97802.50;4891225;29;20229;-62
2024/01/11 04:04:07;;;;;;;13.57;8.77;;;;;;;-3.26;71.33;97817.94;4890573;29;20196;-62
2024/01/11 04:06:34;;;;;;;31.33;10.27;;;;;;;-3.39;71.20;97816.84;4890681;29;20205;-63
2024/01/11 04:09:01;;;;;;;20.00;10.13;;;;;;;-3.21;70.14;97816.38;4890813;29;20338;-63
2024/01/11 04:11:29;;;;;;;19.23;10.33;;;;;;;-3.39;70.65;97815.16;4890791;29;20343;-63
2024/01/11 04:13:56;;;;;;;19.57;9.03;;;;;;;-3.44;71.06;97813.34;4890447;29;20199;-64
2024/01/11 04:16:23;;;;;;;18.00;9.43;;;;;;;-3.58;70.88;97792.81;4890115;29;20246;-63
2024/01/11 04:18:50;;;;;;;15.37;9.10;;;;;;;-3.35;70.36;97804.28;4890944;29;20216;-62
2024/01/11 04:21:28;;;;;;;17.43;9.60;;;;;;;-3.37;70.43;97802.53;4890658;29;20677;-62
2024/01/11 04:23:56;;;;;;;20.50;9.40;;;;;;;-3.39;70.00;97797.44;4890609;29;20195;-63
2024/01/11 04:26:23;;;;;;;20.07;9.73;;;;;;;-3.24;70.12;97789.31;4890348;29;20199;-61
2024/01/11 04:28:52;;;;;;;20.63;10.00;;;;;;;-3.22;69.30;97781.72;4890407;29;20691;-63
2024/01/11 04:31:21;;;;;;;19.30;9.33;;;;;;;-3.23;68.94;97792.66;4890578;29;20291;-63
2024/01/11 04:33:48;;;;;;;18.63;9.03;;;;;;;-3.29;69.87;97793.41;4890398;29;20204;-63
2024/01/11 04:36:16;;;;;;;16.30;9.87;;;;;;;-3.13;70.64;97794.59;4890529;29;20701;-63
2024/01/11 04:38:44;;;;;;;17.13;8.67;;;;;;;-2.99;69.89;97790.63;4890278;29;20282;-63
2024/01/11 04:41:12;;;;;;;20.70;10.90;;;;;;;-2.84;69.03;97793.41;4881808;29;20232;-65
2024/01/11 04:43:41;;;;;;;27.70;10.83;;;;;;;-2.77;69.25;97790.19;4876524;29;20210;-62
2024/01/11 04:46:18;;;;;;;21.77;11.60;;;;;;;-2.73;69.39;97785.22;4871307;29;20284;-67
2024/01/11 04:48:46;;;;;;;33.97;15.60;;;;;;;-2.62;69.07;97795.53;4872621;29;20263;-62
2024/01/11 04:51:16;;;;;;;41.07;18.97;;;;;;;-2.61;69.26;97798.09;4875316;29;20703;-64
2024/01/11 04:53:44;;;;;;;39.50;17.77;;;;;;;-2.54;68.85;97793.97;4875397;29;20212;-63
2024/01/11 04:56:13;;;;;;;43.10;17.43;;;;;;;-2.64;69.24;97789.59;4875213;29;20290;-67
2024/01/11 04:58:43;;;;;;;32.97;15.13;;;;;;;-2.58;68.45;97797.28;4875040;29;20211;-68
2024/01/11 05:01:14;;;;;;;46.57;14.40;;;;;;;-2.68;69.20;97781.06;4875252;29;20796;-65
2024/01/11 05:03:43;;;;;;;41.43;19.80;;;;;;;-3.22;69.13;97728.56;4875029;29;20208;-62
2024/01/11 05:06:17;;;;;;;38.43;22.40;;;;;;;-2.95;69.86;97787.31;4875253;29;20714;-64
2024/01/11 05:08:47;;;;;;;45.43;23.20;;;;;;;-2.80;70.04;97796.03;4874788;29;20210;-67
2024/01/11 05:11:23;;;;;;;45.67;20.57;;;;;;;-2.85;70.92;97787.53;4875235;29;20192;-63
2024/01/11 05:13:51;;;;;;;41.50;18.83;;;;;;;-2.92;70.24;97798.34;4874576;29;20311;-65
2024/01/11 05:16:19;;;;;;;35.43;15.30;;;;;;;-3.04;70.64;97792.22;4879197;29;20320;-67
2024/01/11 05:18:46;;;;;;;31.80;18.33;;;;;;;-3.28;71.58;97791.75;4888810;29;20954;-67
2024/01/11 05:21:13;;;;;;;38.90;18.60;;;;;;;-3.58;72.11;97790.28;4883896;29;20293;-67
2024/01/11 05:23:44;;;;;;;35.67;17.67;;;;;;;-3.70;73.09;97789.16;4885036;29;20205;-68
2024/01/11 05:26:13;;;;;;;32.27;17.70;;;;;;;-3.58;73.79;97770.03;4888763;29;20232;-66
2024/01/11 05:28:40;;;;;;;42.37;19.20;;;;;;;-3.37;73.08;97790.75;4891924;29;20225;-64
2024/01/11 05:31:10;;;;;;;27.43;15.57;;;;;;;-3.31;72.25;97762.16;4893039;29;20209;-67
2024/01/11 05:33:38;;;;;;;30.10;15.40;;;;;;;-3.23;71.84;97785.06;4878321;29;20716;-62
2024/01/11 05:36:06;;;;;;;29.63;14.60;;;;;;;-3.11;72.37;97787.88;4873535;29;20201;-64
2024/01/11 05:38:34;;;;;;;30.13;13.17;;;;;;;-3.14;71.63;97780.19;4874483;29;20379;-62
2024/01/11 05:41:02;;;;;;;32.10;14.10;;;;;;;-3.21;71.82;97751.38;4874432;29;20200;-62
2024/01/11 05:43:29;;;;;;;32.87;14.00;;;;;;;-2.99;71.65;97783.03;4874100;29;20214;-62
2024/01/11 05:45:56;;;;;;;27.70;15.50;;;;;;;-2.93;71.45;97780.59;4892289;29;20815;-63
2024/01/11 05:48:24;;;;;;;27.63;14.27;;;;;;;-3.26;70.28;97758.03;4887958;29;20246;-65
2024/01/11 05:50:51;;;;;;;23.33;12.20;;;;;;;-3.47;71.42;97771.13;4882639;29;20193;-64
2024/01/11 05:53:20;;;;;;;28.17;13.03;;;;;;;-3.77;71.85;97762.88;4884630;29;20211;-66
2024/01/11 05:55:48;;;;;;;33.23;15.67;;;;;;;-3.50;72.51;97767.66;4889867;29;20262;-63
2024/01/11 05:58:18;;;;;;;26.07;14.77;;;;;;;-3.53;71.90;97732.19;4892814;29;20564;-65
2024/01/11 06:00:46;;;;;;;31.03;15.57;;;;;;;-3.33;72.07;97763.78;4891595;29;20199;-64
2024/01/11 06:03:13;;;;;;;33.80;16.87;;;;;;;-3.21;72.07;97770.78;4892703;29;20271;-62
2024/01/11 06:05:40;;;;;;;32.07;14.97;;;;;;;-3.17;71.83;97752.31;4892494;29;20653;-66
2024/01/11 06:08:07;;;;;;;31.60;15.70;;;;;;;-3.05;71.22;97752.53;4892340;29;20212;-62
2024/01/11 06:10:35;;;;;;;61.07;22.83;;;;;;;-3.13;69.75;97741.41;4892451;29;20207;-65
2024/01/11 06:13:02;;;;;;;68.30;25.93;;;;;;;-3.24;69.44;97755.53;4892115;29;20726;-62
2024/01/11 06:15:29;;;;;;;69.33;24.63;;;;;;;-3.43;70.98;97760.25;4892411;29;20241;-63
2024/01/11 06:17:56;;;;;;;62.80;20.80;;;;;;;-3.43;70.86;97732.41;4892481;29;20216;-65
2024/01/11 06:20:23;;;;;;;45.57;19.13;;;;;;;-3.45;70.54;97706.19;4892599;29;20200;-66
2024/01/11 06:22:51;;;;;;;37.87;17.43;;;;;;;-3.30;71.01;97741.91;4890755;29;20235;-63
2024/01/11 06:25:18;;;;;;;35.83;17.07;;;;;;;-3.12;70.86;97732.97;4892442;29;20391;-65
2024/01/11 06:27:46;;;;;;;29.83;16.00;;;;;;;-3.07;70.21;97739.81;4892127;29;20278;-63
2024/01/11 06:30:14;;;;;;;31.17;15.47;;;;;;;-2.98;70.86;97744.19;4892651;29;20207;-66
2024/01/11 06:32:41;;;;;;;32.87;17.10;;;;;;;-2.90;71.55;97727.44;4892645;29;20217;-65
2024/01/11 06:35:09;;;;;;;34.10;17.37;;;;;;;-3.15;72.33;97710.97;4891152;29;20226;-66
2024/01/11 06:37:36;;;;;;;30.30;17.30;;;;;;;-2.89;72.38;97741.84;4892990;29;20687;-66
2024/01/11 06:40:04;;;;;;;29.20;15.63;;;;;;;-2.75;72.35;97738.72;4889394;29;20678;-69
2024/01/11 06:42:33;;;;;;;28.87;15.40;;;;;;;-2.79;72.04;97731.03;4892170;29;20199;-65
2024/01/11 06:45:01;;;;;;;25.37;13.43;;;;;;;-2.78;72.61;97738.66;4892145;29;20243;-65
2024/01/11 06:47:31;;;;;;;22.23;12.17;;;;;;;-2.83;73.30;97736.88;4892281;29;20237;-72
2024/01/11 06:49:59;;;;;;;17.50;10.60;;;;;;;-2.76;72.87;97736.16;4892437;29;20614;-63
2024/01/11 06:52:27;;;;;;;24.50;11.60;;;;;;;-2.98;73.64;97716.31;4891822;29;20236;-62
2024/01/11 06:54:54;;;;;;;20.70;11.50;;;;;;;-2.68;72.73;97735.44;4892029;29;20202;-61
2024/01/11 06:57:21;;;;;;;20.30;12.53;;;;;;;-2.65;72.93;97724.50;4891513;29;20242;-63
2024/01/11 06:59:48;;;;;;;30.40;13.43;;;;;;;-2.31;72.38;97731.81;4891350;29;20204;-63
2024/01/11 07:02:16;;;;;;;24.57;12.90;;;;;;;-2.52;72.33;97712.06;4892759;29;20270;-64
2024/01/11 07:04:45;;;;;;;19.97;11.80;;;;;;;-2.41;72.42;97721.53;4891638;29;20210;-66
2024/01/11 07:07:12;;;;;;;24.13;12.27;;;;;;;-2.66;73.21;97712.66;4891823;29;20201;-65
2024/01/11 07:09:39;;;;;;;17.97;11.07;;;;;;;-2.53;72.67;97712.03;4891102;29;20203;-64
2024/01/11 07:12:07;;;;;;;21.10;9.53;;;;;;;-2.46;72.65;97731.59;4891475;29;20621;-63
2024/01/11 07:14:36;;;;;;;17.70;9.40;;;;;;;-2.45;73.14;97712.16;4891462;29;20197;-62
2024/01/11 07:17:04;;;;;;;18.00;10.40;;;;;;;-2.31;72.87;97730.97;4891238;29;20249;-64
2024/01/11 07:19:31;;;;;;;17.43;8.93;;;;;;;-2.52;72.31;97673.19;4891419;29;20207;-62
2024/01/11 07:21:59;;;;;;;16.50;8.33;;;;;;;-2.17;72.55;97730.34;4891230;29;20204;-62
2024/01/11 07:24:26;;;;;;;19.77;8.10;;;;;;;-2.20;72.99;97724.34;4891317;29;20205;-63
2024/01/11 07:26:53;;;;;;;22.07;8.77;;;;;;;-2.16;73.78;97728.63;4891078;29;20266;-64
2024/01/11 07:29:21;;;;;;;16.20;8.70;;;;;;;-2.08;73.79;97725.38;4891162;29;20195;-64
2024/01/11 07:31:48;;;;;;;15.87;9.27;;;;;;;-1.88;73.12;97728.22;4890988;29;20206;-63
2024/01/11 07:34:15;;;;;;;16.37;8.70;;;;;;;-1.90;73.52;97724.81;4889370;29;20288;-64
2024/01/11 07:36:42;;;;;;;26.40;9.53;;;;;;;-1.85;73.48;97726.56;4890897;29;20207;-64
2024/01/11 07:39:09;;;;;;;18.33;8.60;;;;;;;-1.92;73.35;97688.41;4890345;29;20593;-64
2024/01/11 07:41:37;;;;;;;17.00;8.47;;;;;;;-1.75;73.01;97714.81;4890838;29;20256;-65
2024/01/11 07:44:07;;;;;;;13.43;7.10;;;;;;;-1.70;73.79;97698.84;4890665;29;20211;-63
2024/01/11 07:46:34;;;;;;;11.70;6.87;;;;;;;-1.38;72.90;97716.16;4890928;29;20236;-65
2024/01/11 07:49:12;;;;;;;17.67;8.87;;;;;;;-1.35;72.74;97713.63;4902902;29;20202;-64
2024/01/11 07:51:40;;;;;;;14.13;7.27;;;;;;;-1.34;72.60;97705.19;4890395;29;20210;-65
2024/01/11 07:54:08;;;;;;;17.20;8.30;;;;;;;-1.20;72.62;97707.03;4890381;29;20754;-64
2024/01/11 07:56:36;;;;;;;18.40;8.67;;;;;;;-1.16;73.26;97705.38;4890598;29;20199;-64
2024/01/11 07:59:03;;;;;;;15.77;8.70;;;;;;;-1.22;73.45;97683.31;4890780;29;20216;-63
2024/01/11 08:01:30;;;;;;;16.97;8.67;;;;;;;-1.07;73.40;97690.25;4890479;29;20222;-63
2024/01/11 08:03:57;;;;;;;15.80;7.37;;;;;;;-0.67;73.55;97684.66;4890513;29;20213;-63
2024/01/11 08:06:25;;;;;;;21.90;9.67;;;;;;;-0.49;72.35;97686.47;4890388;29;20539;-63
2024/01/11 08:08:52;;;;;;;17.17;8.03;;;;;;;-0.32;71.88;97683.22;4890659;29;20227;-64
2024/01/11 08:11:28;;;;;;;16.47;8.20;;;;;;;-0.56;71.68;97654.22;4890522;29;20701;-66
2024/01/11 08:14:01;;;;;;;15.87;8.33;;;;;;;-0.28;71.66;97679.88;4890626;29;20325;-64
2024/01/11 08:16:29;;;;;;;18.17;9.70;;;;;;;-0.09;70.79;97675.75;4889557;29;20298;-65
2024/01/11 08:18:57;;;;;;;15.77;9.13;;;;;;;-0.59;71.26;97624.53;4890008;29;20210;-67
2024/01/11 08:21:24;;;;;;;19.50;9.90;;;;;;;-0.14;71.70;97663.00;4889862;29;20214;-63
2024/01/11 08:23:51;;;;;;;24.03;11.13;;;;;;;0.05;70.08;97675.81;4892503;29;20243;-64
2024/01/11 08:26:27;;;;;;;22.00;11.53;;;;;;;-0.29;68.38;97578.09;4896267;29;20215;-64
2024/01/11 08:28:54;;;;;;;24.27;11.47;;;;;;;0.52;68.49;97674.31;4896665;29;20198;-63
2024/01/11 08:31:22;;;;;;;27.30;11.50;;;;;;;0.41;67.75;97651.34;4896289;29;20214;-65
2024/01/11 08:33:50;;;;;;;18.67;10.23;;;;;;;0.72;66.10;97665.88;4894715;29;20839;-63
2024/01/11 08:36:21;;;;;;;23.93;9.57;;;;;;;0.66;65.97;97655.69;4896287;29;20668;-65
2024/01/11 08:38:49;;;;;;;23.63;10.80;;;;;;;0.81;66.46;97657.41;4894968;29;20683;-64
2024/01/11 08:41:16;;;;;;;23.47;11.83;;;;;;;0.89;67.02;97655.72;4894520;29;20187;-64
2024/01/11 08:43:44;;;;;;;21.73;11.30;;;;;;;0.95;66.09;97635.34;4896242;29;20716;-63
2024/01/11 08:46:11;;;;;;;21.67;11.07;;;;;;;1.10;65.94;97632.81;4895969;29;20207;-64
2024/01/11 08:48:38;;;;;;;24.77;11.27;;;;;;;1.12;66.44;97635.38;4878940;29;20318;-63
2024/01/11 08:51:06;;;;;;;21.07;11.70;;;;;;;1.27;65.59;97641.34;4896170;29;20238;-64
2024/01/11 08:53:33;;;;;;;22.90;11.10;;;;;;;1.29;65.42;97641.31;4894740;29;20667;-64
2024/01/11 08:56:00;;;;;;;20.27;9.73;;;;;;;1.33;65.02;97640.47;4896308;29;20199;-64
2024/01/11 08:58:27;;;;;;;19.93;10.23;;;;;;;1.61;64.81;97626.84;4895962;29;20210;-64
2024/01/11 09:00:55;;;;;;;17.70;9.87;;;;;;;1.69;64.83;97626.84;4896283;29;20215;-65
2024/01/11 09:03:22;;;;;;;16.07;8.73;;;;;;;1.60;63.86;97605.59;4895774;29;20199;-65
2024/01/11 09:05:50;;;;;;;16.20;9.03;;;;;;;1.80;63.31;97597.00;4896000;29;21251;-63
2024/01/11 09:08:18;;;;;;;17.37;8.83;;;;;;;1.89;63.97;97604.66;4896192;29;20198;-64
2024/01/11 09:10:46;;;;;;;17.93;9.20;;;;;;;1.97;62.92;97601.22;4879210;29;20255;-64
2024/01/11 09:13:13;;;;;;;15.70;9.00;;;;;;;2.03;62.10;97592.69;4894462;29;20337;-65
2024/01/11 09:15:42;;;;;;;17.60;8.80;;;;;;;2.15;61.89;97595.19;4896164;29;20246;-64
2024/01/11 09:18:09;;;;;;;24.80;9.13;;;;;;;2.12;60.43;97574.78;4896603;29;20208;-64
2024/01/11 09:20:37;;;;;;;18.10;9.00;;;;;;;1.97;59.38;97528.88;4895041;29;20214;-64
2024/01/11 09:23:04;;;;;;;17.40;9.50;;;;;;;2.38;58.48;97562.72;4896048;29;20211;-64
2024/01/11 09:25:31;;;;;;;16.27;9.10;;;;;;;2.53;58.22;97562.66;4896041;29;20689;-63
2024/01/11 09:27:59;;;;;;;18.93;9.23;;;;;;;2.78;57.20;97563.34;4894163;29;20231;-64
2024/01/11 09:30:26;;;;;;;20.40;9.03;;;;;;;2.45;56.62;97508.19;4895599;29;20191;-65
2024/01/11 09:32:54;;;;;;;18.40;9.70;;;;;;;2.81;55.93;97559.03;4895837;29;20222;-64
2024/01/11 09:35:24;;;;;;;19.80;9.13;;;;;;;2.72;55.52;97522.47;4894598;29;20204;-64
2024/01/11 09:37:52;;;;;;;15.70;7.27;;;;;;;3.01;55.68;97553.78;4893067;29;20361;-64
2024/01/11 09:40:20;;;;;;;19.30;7.17;;;;;;;3.13;54.54;97531.47;4892991;29;20234;-62
2024/01/11 09:42:48;;;;;;;15.07;6.83;;;;;;;3.17;53.81;97542.56;4893196;29;20910;-64
2024/01/11 09:45:16;;;;;;;16.83;8.63;;;;;;;3.22;52.06;97543.34;4892484;29;20230;-64
2024/01/11 09:47:48;;;;;;;12.80;7.10;;;;;;;3.37;51.08;97511.66;4892442;29;20207;-64
2024/01/11 09:50:20;;;;;;;15.40;7.07;;;;;;;3.40;49.90;97532.09;4892181;29;20200;-64
2024/01/11 09:52:48;;;;;;;19.07;7.33;;;;;;;3.27;50.54;97531.38;4892152;29;20231;-63
2024/01/11 09:55:17;;;;;;;16.80;8.30;;;;;;;3.16;49.81;97470.06;4892161;29;20678;-64
2024/01/11 09:57:49;;;;;;;19.70;8.20;;;;;;;3.17;47.97;97481.97;4892366;29;20274;-66
2024/01/11 10:00:22;;;;;;;14.67;6.67;;;;;;;3.32;47.45;97506.56;4892224;29;20258;-63
2024/01/11 10:02:49;;;;;;;13.37;5.93;;;;;;;3.40;48.69;97503.97;4892115;29;20211;-64
2024/01/11 10:05:18;;;;;;;11.97;6.53;;;;;;;3.19;51.66;97510.94;4892313;29;20604;-64
2024/01/11 10:07:46;;;;;;;11.50;6.00;;;;;;;3.40;48.50;97494.53;4892136;29;20206;-64
2024/01/11 10:10:16;;;;;;;12.70;6.50;;;;;;;3.53;49.19;97497.81;4892116;29;20667;-67
2024/01/11 10:12:44;;;;;;;13.90;6.93;;;;;;;3.69;49.42;97487.38;4891879;29;20207;-64
2024/01/11 10:15:13;;;;;;;10.27;5.93;;;;;;;3.81;49.77;97453.13;4891650;29;20749;-64
2024/01/11 10:17:45;;;;;;;12.93;6.73;;;;;;;3.81;49.69;97477.00;4891855;29;20715;-64
2024/01/11 10:20:16;;;;;;;11.73;5.73;;;;;;;3.65;48.76;97443.91;4891674;29;20206;-65
2024/01/11 10:22:46;;;;;;;12.80;5.37;;;;;;;3.71;47.06;97451.53;4891811;29;20598;-65
2024/01/11 10:25:15;;;;;;;8.30;4.40;;;;;;;3.43;46.42;97397.25;4890727;29;20222;-64
2024/01/11 10:27:45;;;;;;;11.43;5.07;;;;;;;3.97;46.43;97454.59;4891522;29;20213;-63
2024/01/11 10:30:17;;;;;;;10.70;5.53;;;;;;;4.17;44.88;97460.28;4890024;29;20251;-63
2024/01/11 10:32:46;;;;;;;11.53;5.30;;;;;;;4.27;43.26;97461.00;4891570;29;20201;-66
2024/01/11 10:35:13;;;;;;;9.27;5.07;;;;;;;4.39;42.84;97450.59;4874321;29;20254;-64
2024/01/11 10:37:43;;;;;;;8.40;4.63;;;;;;;4.47;41.85;97444.44;4890124;29;20220;-66
2024/01/11 10:40:15;;;;;;;14.00;4.37;;;;;;;4.59;42.24;97446.84;4891377;29;20207;-66
2024/01/11 10:42:45;;;;;;;7.93;4.27;;;;;;;4.54;41.70;97414.44;4890563;29;20272;-66
2024/01/11 10:45:17;;;;;;;9.47;4.97;;;;;;;4.81;41.84;97419.97;4891344;29;20208;-66
2024/01/11 10:47:51;;;;;;;8.80;4.77;;;;;;;4.59;41.90;97357.09;4890648;29;20210;-64
2024/01/11 10:50:20;;;;;;;10.67;5.47;;;;;;;4.67;42.56;97410.81;4889938;29;20588;-63
2024/01/11 10:53:02;;;;;;;8.30;4.17;;;;;;;4.89;41.57;97402.72;4891384;29;20218;-64
2024/01/11 10:55:33;;;;;;;12.83;6.07;;;;;;;5.16;41.30;97403.09;4891260;29;20220;-63
2024/01/11 10:58:02;;;;;;;8.73;5.57;;;;;;;5.04;41.17;97393.91;4890777;29;20562;-64
2024/01/11 11:00:30;;;;;;;11.07;5.10;;;;;;;5.14;39.76;97386.88;4891074;29;20726;-65
2024/01/11 11:03:02;;;;;;;10.33;4.23;;;;;;;5.21;39.41;97381.59;4891345;29;20209;-63
2024/01/11 11:05:30;;;;;;;7.50;4.53;;;;;;;5.46;39.55;97379.41;4890994;29;20295;-65
2024/01/11 11:08:01;;;;;;;9.83;5.20;;;;;;;5.42;39.44;97375.19;4891059;29;20201;-66
2024/01/11 11:10:31;;;;;;;9.37;5.80;;;;;;;5.48;38.13;97354.53;4889532;29;20303;-64
2024/01/11 11:12:59;;;;;;;14.57;5.63;;;;;;;5.65;38.11;97350.72;4889726;29;20316;-65
2024/01/11 11:15:28;;;;;;;10.03;5.10;;;;;;;5.45;38.54;97310.91;4890865;29;20648;-65
2024/01/11 11:17:56;;;;;;;9.40;5.70;;;;;;;5.23;38.90;97340.50;4890763;29;20206;-64
2024/01/11 11:20:27;;;;;;;14.43;7.13;;;;;;;5.30;38.78;97347.19;4890993;29;20233;-65
2024/01/11 11:23:06;;;;;;;10.23;4.83;;;;;;;5.29;38.95;97330.94;4891160;29;20197;-63
2024/01/11 11:25:34;;;;;;;9.13;5.17;;;;;;;5.48;39.16;97346.81;4889927;29;20211;-64
2024/01/11 11:28:04;;;;;;;9.77;5.90;;;;;;;5.55;39.30;97333.81;4890872;29;20272;-66